createdAt,value
2018-09-28T00:02:13.320Z,102195.64
2018-09-28T00:04:42.445Z,102192.95
2018-09-28T00:07:11.992Z,102196.98
2018-09-28T00:09:41.201Z,102190.69
2018-09-28T00:12:10.261Z,102192.95
2018-09-28T00:14:39.319Z,102192.42
2018-09-28T00:17:08.655Z,102195.64
2018-09-28T00:19:37.859Z,102189.81
2018-09-28T00:22:06.933Z,102193.38
2018-09-28T00:24:36.004Z,102189.34
2018-09-28T00:27:05.079Z,102186.22
2018-09-28T00:29:34.167Z,102186.70
2018-09-28T00:32:03.231Z,102183.13
2018-09-28T00:34:32.335Z,102188.52
2018-09-28T00:37:01.421Z,102196.59
2018-09-28T00:39:30.891Z,102201.10
2018-09-28T00:41:59.971Z,102199.28
2018-09-28T00:44:29.107Z,102202.84
2018-09-28T00:46:58.211Z,102199.28
2018-09-28T00:49:27.271Z,102201.10
2018-09-28T00:51:56.343Z,102204.27
2018-09-28T00:54:25.421Z,102207.83
2018-09-28T00:56:54.514Z,102205.19
2018-09-28T00:59:23.595Z,102210.52
2018-09-28T01:01:52.681Z,102210.56
2018-09-28T01:04:21.897Z,102210.99
2018-09-28T01:06:51.284Z,102211.91
2018-09-28T01:09:20.483Z,102217.34
2018-09-28T01:11:49.605Z,102226.33
2018-09-28T01:14:18.692Z,102227.19
2018-09-28T01:16:47.771Z,102228.53
2018-09-28T01:19:16.868Z,102232.58
2018-09-28T01:21:45.963Z,102233.05
2018-09-28T01:24:15.047Z,102236.70
2018-09-28T01:26:44.185Z,102243.34
2018-09-28T01:29:13.260Z,102242.47
2018-09-28T01:31:42.611Z,102241.60
2018-09-28T01:34:11.735Z,102247.46
2018-09-28T01:36:40.832Z,102246.04
2018-09-28T01:39:10.611Z,102246.98
2018-09-28T01:41:39.914Z,102255.53
2018-09-28T01:44:09.123Z,102258.22
2018-09-28T01:46:38.260Z,102258.66
2018-09-28T01:49:07.327Z,102262.30
2018-09-28T01:51:36.397Z,102250.67
2018-09-28T01:54:05.523Z,102264.05
2018-09-28T01:56:34.611Z,102264.05
2018-09-28T01:59:03.731Z,102265.00
2018-09-28T02:01:33.033Z,102260.96
2018-09-28T02:04:02.161Z,102267.64
2018-09-28T02:06:31.323Z,102266.34
2018-09-28T02:09:06.571Z,102272.20
2018-09-28T02:11:35.659Z,102269.08
2018-09-28T02:14:04.729Z,102272.67
2018-09-28T02:16:33.817Z,102274.45
2018-09-28T02:19:02.975Z,102283.87
2018-09-28T02:21:32.146Z,102283.48
2018-09-28T02:24:01.383Z,102276.28
2018-09-28T02:26:30.452Z,102280.31
2018-09-28T02:28:59.579Z,102287.91
2018-09-28T02:31:28.761Z,102281.73
2018-09-28T02:33:57.819Z,102280.79
2018-09-28T02:36:26.953Z,102287.13
2018-09-28T02:38:56.027Z,102285.30
2018-09-28T02:41:25.233Z,102280.84
2018-09-28T02:43:54.414Z,102282.18
2018-09-28T02:46:23.875Z,102278.14
2018-09-28T02:48:53.018Z,102286.22
2018-09-28T02:51:22.121Z,102288.91
2018-09-28T02:53:51.199Z,102292.94
2018-09-28T02:56:20.319Z,102291.59
2018-09-28T02:58:49.412Z,102286.30
2018-09-28T03:01:18.472Z,102291.20
2018-09-28T03:03:47.621Z,102288.11
2018-09-28T03:06:16.828Z,102286.81
2018-09-28T03:08:46.067Z,102295.75
2018-09-28T03:11:15.137Z,102300.22
2018-09-28T03:13:44.503Z,102301.13
2018-09-28T03:16:13.597Z,102289.03
2018-09-28T03:18:42.903Z,102296.19
2018-09-28T03:21:11.995Z,102305.17
2018-09-28T03:23:41.062Z,102312.33
2018-09-28T03:26:10.134Z,102306.16
2018-09-28T03:28:39.372Z,102311.97
2018-09-28T03:31:08.440Z,102306.12
2018-09-28T03:33:37.568Z,102308.81
2018-09-28T03:36:06.688Z,102315.89
2018-09-28T03:38:36.340Z,102317.71
2018-09-28T03:41:05.448Z,102315.53
2018-09-28T03:43:34.728Z,102315.06
2018-09-28T03:46:03.780Z,102318.23
2018-09-28T03:48:32.848Z,102326.77
2018-09-28T03:51:01.961Z,102329.46
2018-09-28T03:53:31.052Z,102332.59
2018-09-28T03:56:00.132Z,102335.76
2018-09-28T03:58:29.200Z,102330.84
2018-09-28T04:00:58.349Z,102343.91
2018-09-28T04:03:27.452Z,102338.97
2018-09-28T04:05:56.663Z,102351.98
2018-09-28T04:08:25.772Z,102356.92
2018-09-28T04:10:54.926Z,102354.70
2018-09-28T04:13:23.928Z,102357.80
2018-09-28T04:15:53.024Z,102367.69
2018-09-28T04:18:22.100Z,102373.94
2018-09-28T04:20:51.320Z,102373.06
2018-09-28T04:23:20.402Z,102377.58
2018-09-28T04:25:49.494Z,102382.91
2018-09-28T04:28:18.495Z,102385.65
2018-09-28T04:30:47.599Z,102385.65
2018-09-28T04:33:16.677Z,102386.13
2018-09-28T04:35:46.183Z,102386.13
2018-09-28T04:38:15.172Z,102387.03
2018-09-28T04:40:44.389Z,102390.62
2018-09-28T04:43:13.431Z,102396.01
2018-09-28T04:45:42.585Z,102402.27
2018-09-28T04:48:11.852Z,102413.50
2018-09-28T04:50:40.916Z,102407.64
2018-09-28T04:53:10.090Z,102416.59
2018-09-28T04:55:39.200Z,102419.31
2018-09-28T04:58:08.270Z,102428.30
2018-09-28T05:00:37.457Z,102438.15
2018-09-28T05:03:06.753Z,102438.15
2018-09-28T05:05:35.881Z,102441.31
2018-09-28T05:08:04.852Z,102448.98
2018-09-28T05:10:33.939Z,102453.02
2018-09-28T05:13:03.231Z,102459.74
2018-09-28T05:15:32.458Z,102471.38
2018-09-28T05:18:01.512Z,102476.36
2018-09-28T05:20:30.637Z,102478.98
2018-09-28T05:22:59.693Z,102472.32
2018-09-28T05:25:28.788Z,102479.96
2018-09-28T05:27:58.006Z,102479.92
2018-09-28T05:30:26.977Z,102488.47
2018-09-28T05:32:56.156Z,102483.09
2018-09-28T05:35:25.252Z,102488.87
2018-09-28T05:37:54.308Z,102492.42
2018-09-28T05:40:23.500Z,102496.06
2018-09-28T05:42:52.596Z,102497.45
2018-09-28T05:45:21.794Z,102496.58
2018-09-28T05:47:50.917Z,102501.01
2018-09-28T05:50:20.050Z,102499.27
2018-09-28T05:52:49.056Z,102501.99
2018-09-28T05:55:18.165Z,102515.41
2018-09-28T05:57:47.268Z,102512.28
2018-09-28T06:00:21.850Z,102519.00
2018-09-28T06:02:56.248Z,102528.42
2018-09-28T06:05:30.779Z,102533.80
2018-09-28T06:08:00.657Z,102540.53
2018-09-28T06:10:29.703Z,102550.42
2018-09-28T06:12:58.834Z,102552.59
2018-09-28T06:15:27.986Z,102556.09
2018-09-28T06:17:57.104Z,102555.11
2018-09-28T06:20:26.380Z,102556.85
2018-09-28T06:22:55.630Z,102562.56
2018-09-28T06:25:24.736Z,102569.18
2018-09-28T06:27:53.800Z,102570.02
2018-09-28T06:30:22.932Z,102570.02
2018-09-28T06:32:52.045Z,102577.98
2018-09-28T06:35:21.135Z,102586.92
2018-09-28T06:37:50.210Z,102595.87
2018-09-28T06:40:19.388Z,102595.39
2018-09-28T06:42:48.495Z,102603.00
2018-09-28T06:45:17.619Z,102605.66
2018-09-28T06:47:46.708Z,102606.48
2018-09-28T06:50:16.014Z,102613.22
2018-09-28T06:52:45.101Z,102614.49
2018-09-28T06:55:14.267Z,102619.87
2018-09-28T06:57:43.507Z,102626.60
2018-09-28T07:00:12.662Z,102636.39
2018-09-28T07:02:42.020Z,102639.92
2018-09-28T07:05:11.111Z,102638.94
2018-09-28T07:07:41.341Z,102644.28
2018-09-28T07:10:10.528Z,102648.10
2018-09-28T07:12:39.686Z,102654.76
2018-09-28T07:15:08.802Z,102660.44
2018-09-28T07:17:38.026Z,102668.00
2018-09-28T07:20:07.184Z,102664.91
2018-09-28T07:22:36.523Z,102675.06
2018-09-28T07:25:06.252Z,102678.16
2018-09-28T07:27:35.539Z,102680.30
2018-09-28T07:30:05.046Z,102680.70
2018-09-28T07:32:34.289Z,102692.78
2018-09-28T07:35:03.438Z,102694.53
2018-09-28T07:37:32.493Z,102690.81
2018-09-28T07:40:01.645Z,102699.26
2018-09-28T07:42:30.720Z,102699.70
2018-09-28T07:44:59.794Z,102697.80
2018-09-28T07:47:28.997Z,102710.80
2018-09-28T07:49:58.141Z,102709.45
2018-09-28T07:52:27.308Z,102711.67
2018-09-28T07:54:56.483Z,102713.96
2018-09-28T07:57:25.590Z,102717.53
2018-09-28T07:59:54.703Z,102715.78
2018-09-28T08:02:23.788Z,102716.22
2018-09-28T08:04:52.872Z,102716.30
2018-09-28T08:07:21.967Z,102723.79
2018-09-28T08:09:51.098Z,102725.86
2018-09-28T08:12:20.285Z,102728.63
2018-09-28T08:14:49.372Z,102738.89
2018-09-28T08:17:18.480Z,102735.25
2018-09-28T08:19:47.606Z,102741.95
2018-09-28T08:22:16.781Z,102751.67
2018-09-28T08:24:46.038Z,102761.58
2018-09-28T08:27:15.379Z,102758.30
2018-09-28T08:29:44.560Z,102759.13
2018-09-28T08:32:13.769Z,102764.63
2018-09-28T08:34:43.118Z,102765.98
2018-09-28T08:37:12.219Z,102778.98
2018-09-28T08:39:41.351Z,102775.01
2018-09-28T08:42:10.467Z,102778.61
2018-09-28T08:44:39.517Z,102793.07
2018-09-28T08:47:08.593Z,102792.59
2018-09-28T08:49:37.731Z,102793.91
2018-09-28T08:52:06.846Z,102793.80
2018-09-28T08:54:36.013Z,102787.50
2018-09-28T08:57:05.253Z,102795.98
2018-09-28T08:59:34.371Z,102806.25
2018-09-28T09:02:03.441Z,102808.95
2018-09-28T09:04:32.802Z,102808.95
2018-09-28T09:07:01.920Z,102812.15
2018-09-28T09:09:31.019Z,102813.02
2018-09-28T09:12:00.122Z,102817.64
2018-09-28T09:14:29.213Z,102817.58
2018-09-28T09:16:58.271Z,102813.50
2018-09-28T09:19:27.345Z,102812.11
2018-09-28T09:21:56.616Z,102813.09
2018-09-28T09:24:25.807Z,102824.67
2018-09-28T09:26:54.944Z,102833.23
2018-09-28T09:29:24.025Z,102832.72
2018-09-28T09:31:53.186Z,102833.70
2018-09-28T09:34:22.319Z,102826.97
2018-09-28T09:36:51.569Z,102832.76
2018-09-28T09:39:20.680Z,102840.84
2018-09-28T09:41:49.845Z,102841.83
2018-09-28T09:44:19.201Z,102840.47
2018-09-28T09:46:48.274Z,102843.53
2018-09-28T09:49:17.340Z,102835.92
2018-09-28T09:51:46.459Z,102840.91
2018-09-28T09:54:15.582Z,102836.00
2018-09-28T09:56:44.651Z,102836.36
2018-09-28T09:59:13.715Z,102833.13
2018-09-28T10:01:48.124Z,102842.05
2018-09-28T10:04:17.261Z,102842.52
2018-09-28T10:06:46.365Z,102847.44
2018-09-28T10:09:15.567Z,102846.92
2018-09-28T10:11:44.667Z,102846.48
2018-09-28T10:14:13.742Z,102847.39
2018-09-28T10:16:43.013Z,102856.76
2018-09-28T10:19:12.199Z,102850.39
2018-09-28T10:21:41.605Z,102849.77
2018-09-28T10:24:10.763Z,102846.23
2018-09-28T10:26:39.937Z,102840.92
2018-09-28T10:29:09.179Z,102842.67
2018-09-28T10:31:38.385Z,102846.16
2018-09-28T10:34:07.693Z,102848.79
2018-09-28T10:36:37.018Z,102851.02
2018-09-28T10:39:07.817Z,102844.85
2018-09-28T10:41:37.241Z,102837.53
2018-09-28T10:44:07.007Z,102845.11
2018-09-28T10:46:36.371Z,102852.21
2018-09-28T10:49:05.517Z,102840.55
2018-09-28T10:51:34.629Z,102841.50
2018-09-28T10:54:04.211Z,102837.60
2018-09-28T10:56:33.433Z,102841.83
2018-09-28T10:59:02.518Z,102851.33
2018-09-28T11:01:31.656Z,102849.66
2018-09-28T11:04:00.737Z,102853.30
2018-09-28T11:06:30.101Z,102853.41
2018-09-28T11:09:00.475Z,102852.09
2018-09-28T11:11:29.688Z,102848.56
2018-09-28T11:13:58.775Z,102853.14
2018-09-28T11:16:27.889Z,102857.80
2018-09-28T11:18:57.111Z,102850.99
2018-09-28T11:21:26.425Z,102856.95
2018-09-28T11:23:55.957Z,102853.42
2018-09-28T11:26:25.173Z,102857.97
2018-09-28T11:28:54.410Z,102860.70
2018-09-28T11:31:23.781Z,102858.10
2018-09-28T11:33:52.825Z,102862.22
2018-09-28T11:36:21.916Z,102855.11
2018-09-28T11:38:51.051Z,102856.45
2018-09-28T11:41:20.162Z,102856.89
2018-09-28T11:43:49.245Z,102850.70
2018-09-28T11:46:18.411Z,102849.79
2018-09-28T11:48:47.511Z,102856.16
2018-09-28T11:51:16.655Z,102857.09
2018-09-28T11:53:45.847Z,102865.58
2018-09-28T11:56:14.919Z,102867.47
2018-09-28T11:58:44.068Z,102868.48
2018-09-28T12:01:13.185Z,102885.10
2018-09-28T12:03:42.272Z,102864.06
2018-09-28T12:06:11.642Z,102874.73
2018-09-28T12:08:40.956Z,102877.52
2018-09-28T12:11:10.162Z,102880.22
2018-09-28T12:13:39.269Z,102880.69
2018-09-28T12:16:08.385Z,102879.41
2018-09-28T12:18:37.564Z,102878.97
2018-09-28T12:21:06.850Z,102874.49
2018-09-28T12:23:36.123Z,102873.22
2018-09-28T12:26:05.195Z,102877.66
2018-09-28T12:28:34.275Z,102862.45
2018-09-28T12:31:03.313Z,102858.44
2018-09-28T12:33:32.497Z,102854.87
2018-09-28T12:36:02.087Z,102854.00
2018-09-28T12:38:31.360Z,102854.50
2018-09-28T12:41:00.454Z,102856.69
2018-09-28T12:43:35.030Z,102851.74
2018-09-28T12:45:58.867Z,102856.25
2018-09-28T12:48:28.007Z,102854.03
2018-09-28T12:50:57.233Z,102860.80
2018-09-28T12:53:26.347Z,102863.48
2018-09-28T12:55:55.440Z,102855.00
2018-09-28T12:58:25.476Z,102858.63
2018-09-28T13:00:55.241Z,102862.23
2018-09-28T13:03:24.399Z,102858.63
2018-09-28T13:05:53.460Z,102868.09
2018-09-28T13:08:22.592Z,102861.86
2018-09-28T13:10:51.828Z,102862.33
2018-09-28T13:13:20.883Z,102866.84
2018-09-28T13:15:49.975Z,102873.09
2018-09-28T13:18:19.134Z,102865.50
2018-09-28T13:20:48.451Z,102868.56
2018-09-28T13:23:17.615Z,102870.41
2018-09-28T13:25:46.660Z,102873.23
2018-09-28T13:28:15.840Z,102865.53
2018-09-28T13:30:45.027Z,102870.06
2018-09-28T13:33:14.227Z,102866.50
2018-09-28T13:35:43.479Z,102866.09
2018-09-28T13:38:18.127Z,102868.34
2018-09-28T13:40:47.365Z,102869.76
2018-09-28T13:43:16.442Z,102865.66
2018-09-28T13:45:45.704Z,102871.98
2018-09-28T13:48:14.884Z,102868.41
2018-09-28T13:50:44.297Z,102865.72
2018-09-28T13:53:13.560Z,102869.79
2018-09-28T13:55:42.614Z,102861.74
2018-09-28T13:58:11.787Z,102869.31
2018-09-28T14:00:41.052Z,102867.06
2018-09-28T14:03:10.403Z,102867.97
2018-09-28T14:05:39.529Z,102864.00
2018-09-28T14:08:08.640Z,102869.22
2018-09-28T14:10:38.096Z,102875.45
2018-09-28T14:13:07.739Z,102867.13
2018-09-28T14:15:36.836Z,102870.47
2018-09-28T14:18:06.262Z,102868.38
2018-09-28T14:20:35.581Z,102869.72
2018-09-28T14:23:04.844Z,102868.28
2018-09-28T14:25:34.074Z,102871.80
2018-09-28T14:28:03.307Z,102874.42
2018-09-28T14:30:32.546Z,102876.55
2018-09-28T14:33:01.780Z,102879.08
2018-09-28T14:35:30.829Z,102878.89
2018-09-28T14:37:59.920Z,102880.98
2018-09-28T14:40:29.016Z,102872.84
2018-09-28T14:42:58.264Z,102888.02
2018-09-28T14:45:27.332Z,102885.27
2018-09-28T14:47:56.407Z,102881.23
2018-09-28T14:50:25.667Z,102883.45
2018-09-28T14:52:54.908Z,102880.22
2018-09-28T14:55:24.000Z,102889.17
2018-09-28T14:57:53.075Z,102888.70
2018-09-28T15:00:22.439Z,102895.91
2018-09-28T15:02:51.817Z,102898.63
2018-09-28T15:05:21.001Z,102898.63
2018-09-28T15:07:50.094Z,102893.62
2018-09-28T15:10:19.315Z,102892.74
2018-09-28T15:12:48.595Z,102907.08
2018-09-28T15:15:17.715Z,102912.84
2018-09-28T15:17:46.967Z,102906.17
2018-09-28T15:20:16.028Z,102905.30
2018-09-28T15:22:45.183Z,102901.19
2018-09-28T15:25:14.261Z,102891.27
2018-09-28T15:27:43.384Z,102885.84
2018-09-28T15:30:12.482Z,102890.80
2018-09-28T15:32:41.788Z,102886.63
2018-09-28T15:35:11.020Z,102882.48
2018-09-28T15:37:40.291Z,102876.19
2018-09-28T15:40:10.222Z,102886.48
2018-09-28T15:42:39.320Z,102888.67
2018-09-28T15:45:08.487Z,102891.30
2018-09-28T15:47:37.694Z,102886.83
2018-09-28T15:50:06.948Z,102889.34
2018-09-28T15:52:36.094Z,102892.48
2018-09-28T15:55:05.196Z,102896.05
2018-09-28T15:57:34.292Z,102897.84
2018-09-28T16:00:03.492Z,102898.27
2018-09-28T16:02:32.693Z,102893.80
2018-09-28T16:05:01.900Z,102910.77
2018-09-28T16:07:30.976Z,102917.06
2018-09-28T16:10:00.053Z,102900.42
2018-09-28T16:12:29.168Z,102906.66
2018-09-28T16:14:58.244Z,102913.39
2018-09-28T16:17:27.350Z,102924.23
2018-09-28T16:19:56.540Z,102923.73
2018-09-28T16:22:25.618Z,102931.34
2018-09-28T16:24:54.736Z,102934.00
2018-09-28T16:27:24.429Z,102938.45
2018-09-28T16:29:53.496Z,102946.23
2018-09-28T16:32:22.556Z,102959.27
2018-09-28T16:34:51.624Z,102946.73
2018-09-28T16:37:21.644Z,102953.94
2018-09-28T16:39:50.843Z,102971.08
2018-09-28T16:42:19.980Z,102957.64
2018-09-28T16:44:49.071Z,102966.66
2018-09-28T16:47:18.143Z,102964.84
2018-09-28T16:49:47.221Z,102969.39
2018-09-28T16:52:16.276Z,102971.23
2018-09-28T16:54:45.427Z,102966.73
2018-09-28T16:57:14.602Z,102970.33
2018-09-28T16:59:43.725Z,102975.28
2018-09-28T17:02:12.926Z,102977.97
2018-09-28T17:04:42.292Z,102980.66
2018-09-28T17:07:11.420Z,102979.76
2018-09-28T17:09:40.502Z,102986.49
2018-09-28T17:12:09.578Z,102990.09
2018-09-28T17:14:38.917Z,102993.23
2018-09-28T17:17:08.001Z,102990.56
2018-09-28T17:19:37.170Z,102994.64
2018-09-28T17:22:06.218Z,102995.08
2018-09-28T17:24:35.341Z,102996.89
2018-09-28T17:27:04.886Z,102999.05
2018-09-28T17:29:34.156Z,103001.34
2018-09-28T17:32:03.284Z,103005.78
2018-09-28T17:34:32.407Z,103009.33
2018-09-28T17:37:01.553Z,103011.52
2018-09-28T17:39:30.653Z,103016.87
2018-09-28T17:41:59.818Z,103019.57
2018-09-28T17:44:28.842Z,103028.53
2018-09-28T17:46:57.917Z,103027.15
2018-09-28T17:49:27.108Z,103026.30
2018-09-28T17:51:56.299Z,103041.13
2018-09-28T17:54:25.402Z,103037.61
2018-09-28T17:56:54.467Z,103040.89
2018-09-28T17:59:23.644Z,103042.42
2018-09-28T18:01:52.716Z,103036.22
2018-09-28T18:04:21.858Z,103039.01
2018-09-28T18:06:50.954Z,103044.48
2018-09-28T18:09:20.169Z,103049.50
2018-09-28T18:11:49.324Z,103054.03
2018-09-28T18:14:18.523Z,103051.34
2018-09-28T18:16:47.748Z,103053.16
2018-09-28T18:19:16.984Z,103050.48
2018-09-28T18:21:46.162Z,103055.49
2018-09-28T18:24:15.240Z,103053.30
2018-09-28T18:26:44.308Z,103063.69
2018-09-28T18:29:13.377Z,103069.55
2018-09-28T18:31:42.548Z,103070.04
2018-09-28T18:34:11.750Z,103070.53
2018-09-28T18:36:40.901Z,103079.95
2018-09-28T18:39:10.538Z,103076.86
2018-09-28T18:41:39.723Z,103084.52
2018-09-28T18:44:09.045Z,103079.63
2018-09-28T18:46:38.143Z,103085.02
2018-09-28T18:49:07.304Z,103075.59
2018-09-28T18:51:36.700Z,103081.00
2018-09-28T18:54:05.753Z,103078.80
2018-09-28T18:56:34.920Z,103075.70
2018-09-28T18:59:04.121Z,103079.28
2018-09-28T19:01:33.223Z,103080.63
2018-09-28T19:04:02.343Z,103082.05
2018-09-28T19:06:31.502Z,103086.09
2018-09-28T19:09:08.667Z,103090.13
2018-09-28T19:11:37.761Z,103088.81
2018-09-28T19:14:07.079Z,103092.43
2018-09-28T19:16:36.180Z,103093.77
2018-09-28T19:19:05.389Z,103088.87
2018-09-28T19:21:34.490Z,103088.86
2018-09-28T19:24:03.799Z,103088.86
2018-09-28T19:26:32.986Z,103091.58
2018-09-28T19:29:02.204Z,103096.55
2018-09-28T19:31:31.384Z,103094.73
2018-09-28T19:34:00.480Z,103096.57
2018-09-28T19:36:29.660Z,103093.00
2018-09-28T19:38:58.722Z,103092.13
2018-09-28T19:41:27.873Z,103093.94
2018-09-28T19:43:57.056Z,103093.47
2018-09-28T19:46:26.120Z,103093.47
2018-09-28T19:48:55.242Z,103086.74
2018-09-28T19:51:24.300Z,103090.38
2018-09-28T19:53:53.417Z,103089.52
2018-09-28T19:56:22.552Z,103096.25
2018-09-28T19:58:51.676Z,103094.84
2018-09-28T20:01:20.756Z,103094.05
2018-09-28T20:03:49.882Z,103091.83
2018-09-28T20:06:19.072Z,103095.39
2018-09-28T20:08:48.348Z,103092.73
2018-09-28T20:11:17.528Z,103095.86
2018-09-28T20:13:46.692Z,103100.28
2018-09-28T20:16:16.055Z,103103.94
2018-09-28T20:18:45.123Z,103102.15
2018-09-28T20:21:14.217Z,103106.62
2018-09-28T20:23:43.296Z,103111.13
2018-09-28T20:26:12.843Z,103113.36
2018-09-28T20:28:42.093Z,103113.36
2018-09-28T20:31:11.242Z,103115.60
2018-09-28T20:33:40.318Z,103117.39
2018-09-28T20:36:09.399Z,103115.17
2018-09-28T20:38:38.647Z,103113.36
2018-09-28T20:41:07.850Z,103116.52
2018-09-28T20:43:36.952Z,103113.82
2018-09-28T20:46:06.306Z,103117.39
2018-09-28T20:48:35.399Z,103115.19
2018-09-28T20:51:04.469Z,103116.95
2018-09-28T20:53:33.529Z,103120.58
2018-09-28T20:56:02.733Z,103123.73
2018-09-28T20:58:32.075Z,103122.39
2018-09-28T21:01:03.129Z,103119.70
2018-09-28T21:03:32.355Z,103120.16
2018-09-28T21:06:01.605Z,103124.20
2018-09-28T21:08:30.721Z,103128.23
2018-09-28T21:10:59.797Z,103124.22
2018-09-28T21:13:28.870Z,103130.48
2018-09-28T21:15:58.215Z,103134.96
2018-09-28T21:18:27.341Z,103133.17
2018-09-28T21:20:56.615Z,103143.06
2018-09-28T21:23:25.703Z,103139.91
2018-09-28T21:25:55.001Z,103140.37
2018-09-28T21:28:24.194Z,103144.87
2018-09-28T21:30:53.377Z,103143.08
2018-09-28T21:33:22.637Z,103141.73
2018-09-28T21:35:51.701Z,103148.47
2018-09-28T21:38:20.797Z,103145.34
2018-09-28T21:40:49.908Z,103145.77
2018-09-28T21:43:19.268Z,103144.87
2018-09-28T21:45:48.372Z,103141.73
2018-09-28T21:48:17.499Z,103139.48
2018-09-28T21:50:46.580Z,103142.19
2018-09-28T21:53:15.676Z,103138.14
2018-09-28T21:55:44.807Z,103140.39
2018-09-28T21:58:13.912Z,103140.84
2018-09-28T22:00:42.999Z,103141.30
2018-09-28T22:03:12.467Z,103144.89
2018-09-28T22:05:41.637Z,103148.47
2018-09-28T22:08:10.897Z,103144.43
2018-09-28T22:10:40.055Z,103143.99
2018-09-28T22:13:09.157Z,103144.43
2018-09-28T22:15:38.427Z,103152.09
2018-09-28T22:18:07.572Z,103151.16
2018-09-28T22:20:36.768Z,103153.41
2018-09-28T22:23:06.227Z,103148.47
2018-09-28T22:25:35.371Z,103151.60
2018-09-28T22:28:04.605Z,103147.12
2018-09-28T22:30:33.685Z,103145.36
2018-09-28T22:33:02.763Z,103150.75
2018-09-28T22:35:31.857Z,103154.31
2018-09-28T22:38:00.943Z,103145.36
2018-09-28T22:40:30.040Z,103149.81
2018-09-28T22:42:59.139Z,103156.59
2018-09-28T22:45:28.330Z,103155.19
2018-09-28T22:47:57.532Z,103153.82
2018-09-28T22:50:26.648Z,103156.10
2018-09-28T22:52:55.703Z,103152.50
2018-09-28T22:55:24.771Z,103146.23
2018-09-28T22:57:53.924Z,103153.84
2018-09-28T23:00:23.021Z,103156.10
2018-09-28T23:02:52.116Z,103151.63
2018-09-28T23:05:21.195Z,103147.12
2018-09-28T23:07:50.295Z,103141.33
2018-09-28T23:10:19.415Z,103140.45
2018-09-28T23:12:48.517Z,103144.95
2018-09-28T23:15:17.604Z,103141.34
2018-09-28T23:17:46.675Z,103139.13
2018-09-28T23:20:15.732Z,103139.59
2018-09-28T23:22:44.923Z,103137.31
2018-09-28T23:25:14.076Z,103135.09
2018-09-28T23:27:43.263Z,103135.55
2018-09-28T23:30:12.365Z,103135.55
2018-09-28T23:32:41.583Z,103136.45
2018-09-28T23:35:10.689Z,103140.08
2018-09-28T23:37:39.732Z,103137.86
2018-09-28T23:40:08.850Z,103142.80
2018-09-28T23:42:37.940Z,103141.02
2018-09-28T23:45:06.996Z,103138.34
2018-09-28T23:47:36.193Z,103136.13
2018-09-28T23:50:05.480Z,103141.50
2018-09-28T23:52:34.647Z,103139.69
2018-09-28T23:55:03.928Z,103141.97
2018-09-28T23:57:33.048Z,103141.50
